createdAt,value
2022-08-07T00:44:33.633Z,4.95
2022-08-07T00:47:03.016Z,4.85
2022-08-07T00:50:20.315Z,5.50
2022-08-07T01:10:05.039Z,5.93
2022-08-07T01:12:39.114Z,6.22
2022-08-07T01:15:07.412Z,5.82
2022-08-07T01:17:40.048Z,5.75
2022-08-07T01:20:30.930Z,5.55
2022-08-07T01:23:09.428Z,6.50
2022-08-07T01:25:55.222Z,5.95
2022-08-07T01:28:24.117Z,6.68
2022-08-07T01:30:53.123Z,6.30
2022-08-07T01:33:21.547Z,6.57
2022-08-07T01:35:54.001Z,6.28
2022-08-07T01:38:25.983Z,5.97
2022-08-07T01:41:00.636Z,6.25
2022-08-07T01:43:38.057Z,6.05
2022-08-07T04:10:54.472Z,6.80
2022-08-07T04:14:32.961Z,6.70
2022-08-07T04:16:31.585Z,6.47
2022-08-07T04:19:15.216Z,6.22
2022-08-07T04:21:48.081Z,6.60
2022-08-07T06:55:27.920Z,11.38
2022-08-07T06:56:15.566Z,10.95
2022-08-07T07:00:13.244Z,11.30
2022-08-07T09:32:58.993Z,3.45
2022-08-07T09:36:09.750Z,3.45
2022-08-07T09:39:55.289Z,3.45
2022-08-07T09:42:25.270Z,3.20
2022-08-07T09:47:27.738Z,3.20
2022-08-07T09:49:02.225Z,2.97
2022-08-07T09:52:09.874Z,3.50
2022-08-07T09:54:47.937Z,3.10
2022-08-07T09:57:46.802Z,3.80
2022-08-07T10:00:21.286Z,3.67
2022-08-07T18:30:06.591Z,4.70
2022-08-07T18:32:24.515Z,4.90
2022-08-07T18:35:17.003Z,5.30
2022-08-07T19:19:13.105Z,4.60
2022-08-07T19:21:56.955Z,4.72
2022-08-07T20:13:45.195Z,5.05
2022-08-07T20:16:35.826Z,4.57
2022-08-07T20:19:05.850Z,5.10
2022-08-07T20:21:41.702Z,4.97
2022-08-07T20:24:35.089Z,5.28
2022-08-07T20:29:56.885Z,4.90
2022-08-07T20:32:40.076Z,4.70
2022-08-07T20:35:26.557Z,5.38
2022-08-07T20:37:59.527Z,5.20
2022-08-07T20:40:33.149Z,5.70
2022-08-07T20:43:02.724Z,5.55
2022-08-07T20:46:26.123Z,4.88
2022-08-07T20:48:29.682Z,5.18
2022-08-07T20:51:01.744Z,5.00
2022-08-07T20:54:03.086Z,4.63
2022-08-07T20:56:29.449Z,4.45
2022-08-07T20:59:02.054Z,4.45
2022-08-07T21:01:45.455Z,5.03
2022-08-07T21:04:22.489Z,4.45
2022-08-07T21:06:56.822Z,3.97
2022-08-07T21:09:42.828Z,4.10
2022-08-07T21:12:26.039Z,4.40
2022-08-07T21:14:59.009Z,4.50
2022-08-07T21:20:26.862Z,4.38
2022-08-07T21:23:08.666Z,4.07
2022-08-07T21:26:10.985Z,4.63
2022-08-07T21:28:56.054Z,4.38
2022-08-07T21:32:47.887Z,4.43
2022-08-07T21:34:59.765Z,4.28
2022-08-07T23:25:37.415Z,3.50
2022-08-07T23:28:35.680Z,3.53
2022-08-07T23:42:45.781Z,4.28
2022-08-07T23:46:02.657Z,4.28
2022-08-07T23:49:19.982Z,4.45
2022-08-07T23:52:58.509Z,4.55
2022-08-07T23:55:11.899Z,4.40
2022-08-07T23:58:18.690Z,4.28
